Time;durP1;ratioP1;P1;durP2;ratioP2;P2;SDS_P1;SDS_P2;PMS_P1;PMS_P2;Temp;Humidity;BMP_temperature;BMP_pressure;BME280_temperature;BME280_humidity;BME280_pressure;Samples;Min_cycle;Max_cycle;Signal;HPM_P1;HPM_P2
2023/07/24 00:01:15;;;;;;;48.63;40.80;;;22.10;99.90;;;;;;4971765;28;20046;-59
2023/07/24 00:03:41;;;;;;;44.42;39.85;;;21.70;99.90;;;;;;4972487;28;20085;-59
2023/07/24 00:06:06;;;;;;;45.80;40.15;;;21.60;99.90;;;;;;4971195;28;20464;-59
2023/07/24 00:08:32;;;;;;;44.88;40.33;;;22.70;99.90;;;;;;4970661;28;20045;-59
2023/07/24 00:10:58;;;;;;;44.38;39.85;;;22.60;99.90;;;;;;4971527;28;20046;-59
2023/07/24 00:13:24;;;;;;;47.53;42.40;;;22.60;99.90;;;;;;4972256;28;20089;-59
2023/07/24 00:15:49;;;;;;;47.03;40.75;;;22.00;99.90;;;;;;4972175;28;20046;-59
2023/07/24 00:18:15;;;;;;;46.50;41.45;;;21.60;99.90;;;;;;4971988;28;20122;-58
2023/07/24 00:20:40;;;;;;;45.55;41.03;;;22.50;99.90;;;;;;4971763;28;20070;-59
2023/07/24 00:23:06;;;;;;;44.70;40.05;;;22.00;99.90;;;;;;4972224;28;20493;-58
2023/07/24 00:25:31;;;;;;;46.50;41.58;;;21.60;99.90;;;;;;4971490;28;20038;-58
2023/07/24 00:27:57;;;;;;;46.33;41.38;;;22.40;99.90;;;;;;4970884;28;20034;-58
2023/07/24 00:30:22;;;;;;;45.25;40.47;;;21.60;99.90;;;;;;4971982;28;20094;-58
2023/07/24 00:32:48;;;;;;;44.88;40.40;;;22.10;99.90;;;;;;4971455;28;20033;-58
2023/07/24 00:35:14;;;;;;;47.65;41.60;;;22.40;99.90;;;;;;4971948;28;20034;-58
2023/07/24 00:37:39;;;;;;;48.10;43.10;;;22.20;99.90;;;;;;4970694;28;20125;-59
2023/07/24 00:40:05;;;;;;;45.55;40.55;;;22.40;99.90;;;;;;4971694;28;20090;-58
2023/07/24 00:42:31;;;;;;;47.90;42.58;;;21.70;99.90;;;;;;4971232;28;20046;-58
2023/07/24 00:44:57;;;;;;;47.50;42.67;;;21.50;99.90;;;;;;4971805;28;20398;-58
2023/07/24 00:47:23;;;;;;;45.88;41.38;;;21.70;99.90;;;;;;4969771;28;20078;-58
2023/07/24 00:49:50;;;;;;;44.38;39.80;;;21.70;99.90;;;;;;4971999;28;20066;-58
2023/07/24 00:52:15;;;;;;;46.33;41.75;;;21.30;99.90;;;;;;4971847;28;20082;-58
2023/07/24 00:54:43;;;;;;;46.80;41.83;;;22.40;99.90;;;;;;4971926;28;20078;-58
2023/07/24 00:57:09;;;;;;;46.35;41.70;;;21.40;99.90;;;;;;4971502;28;20166;-58
2023/07/24 00:59:35;;;;;;;44.55;39.95;;;20.60;99.90;;;;;;4970903;28;20150;-58
2023/07/24 01:02:01;;;;;;;44.72;40.17;;;22.50;99.90;;;;;;4970745;28;20512;-58
2023/07/24 01:04:26;;;;;;;45.28;40.70;;;21.80;99.90;;;;;;4970959;28;20050;-58
2023/07/24 01:06:52;;;;;;;45.88;40.58;;;21.80;99.90;;;;;;4970946;28;20054;-58
2023/07/24 01:09:17;;;;;;;46.55;41.38;;;22.80;99.90;;;;;;4971774;28;20061;-58
2023/07/24 01:11:51;;;;;;;48.03;42.42;;;21.70;99.90;;;;;;4971489;28;20042;-58
2023/07/24 01:14:22;;;;;;;45.97;41.13;;;21.90;99.90;;;;;;4970917;28;20061;-58
2023/07/24 01:16:50;;;;;;;46.40;41.90;;;22.00;99.90;;;;;;4970658;28;20053;-58
2023/07/24 01:19:34;;;;;;;46.13;41.25;;;22.00;99.90;;;;;;4971427;28;20161;-58
2023/07/24 01:22:23;;;;;;;41.53;37.40;;;22.40;99.90;;;;;;4971229;28;20046;-58
2023/07/24 01:25:01;;;;;;;47.58;40.22;;;22.30;99.90;;;;;;4970871;28;20046;-58
2023/07/24 01:27:26;;;;;;;43.78;39.15;;;22.30;99.90;;;;;;4969788;28;20057;-58
2023/07/24 01:29:52;;;;;;;50.83;43.17;;;22.70;99.90;;;;;;4971073;28;20035;-58
2023/07/24 01:32:19;;;;;;;48.25;43.28;;;21.70;99.90;;;;;;4971458;28;20413;-58
2023/07/24 01:34:45;;;;;;;46.17;41.45;;;22.40;99.90;;;;;;4970773;28;20072;-58
2023/07/24 01:37:12;;;;;;;45.67;40.53;;;21.60;99.90;;;;;;4971044;28;20039;-58
2023/07/24 01:39:40;;;;;;;52.58;41.65;;;22.60;99.90;;;;;;4971233;28;20038;-58
2023/07/24 01:42:06;;;;;;;47.53;41.67;;;21.60;99.90;;;;;;4971472;28;20043;-58
2023/07/24 01:44:32;;;;;;;46.17;41.35;;;21.60;99.90;;;;;;4971185;28;20543;-58
2023/07/24 01:46:57;;;;;;;45.55;40.28;;;21.70;99.90;;;;;;4970763;28;20050;-58
2023/07/24 01:49:23;;;;;;;46.20;41.35;;;22.10;99.90;;;;;;4979107;28;20045;-59
2023/07/24 01:51:49;;;;;;;46.50;41.78;;;22.40;99.90;;;;;;4970859;28;20473;-58
2023/07/24 01:54:14;;;;;;;52.53;41.92;;;22.10;99.90;;;;;;4971675;28;20054;-59
2023/07/24 01:56:40;;;;;;;46.22;41.35;;;22.70;99.90;;;;;;4970980;28;20043;-58
2023/07/24 01:59:05;;;;;;;48.08;39.47;;;21.60;99.90;;;;;;4971328;28;20039;-58
2023/07/24 02:01:31;;;;;;;47.38;40.65;;;21.60;99.90;;;;;;4971002;28;20513;-58
2023/07/24 02:03:57;;;;;;;45.55;40.13;;;22.60;99.90;;;;;;4970131;28;20137;-58
2023/07/24 02:06:22;;;;;;;45.55;40.55;;;23.00;99.90;;;;;;4970623;28;20062;-58
2023/07/24 02:08:51;;;;;;;46.42;40.10;;;22.00;99.90;;;;;;4970741;28;20039;-58
2023/07/24 02:11:16;;;;;;;45.55;40.45;;;21.70;99.90;;;;;;4972764;28;20042;-59
2023/07/24 02:13:46;;;;;;;45.72;40.42;;;22.50;99.90;;;;;;4974696;28;20047;-58
2023/07/24 02:16:12;;;;;;;44.38;38.92;;;21.80;99.90;;;;;;4974371;28;20046;-59
2023/07/24 02:18:42;;;;;;;45.63;40.90;;;21.60;99.90;;;;;;4974350;28;20647;-59
2023/07/24 02:21:08;;;;;;;45.83;40.08;;;22.20;99.90;;;;;;4973966;28;20124;-59
2023/07/24 02:23:34;;;;;;;45.15;39.35;;;22.80;99.90;;;;;;4974602;28;20501;-59
2023/07/24 02:26:00;;;;;;;47.45;40.60;;;22.80;99.90;;;;;;4974556;28;20046;-59
2023/07/24 02:28:25;;;;;;;46.35;40.00;;;21.60;99.90;;;;;;4973694;28;20400;-59
2023/07/24 02:30:55;;;;;;;45.58;40.15;;;21.70;99.90;;;;;;4974455;28;20043;-58
2023/07/24 02:33:21;;;;;;;47.05;39.78;;;22.50;99.90;;;;;;4973971;28;20043;-58
2023/07/24 02:35:47;;;;;;;43.97;38.42;;;22.20;99.90;;;;;;4973807;28;20426;-58
2023/07/24 02:38:12;;;;;;;44.70;38.88;;;22.70;99.90;;;;;;4973045;28;20169;-59
2023/07/24 02:40:41;;;;;;;46.30;39.08;;;21.70;99.90;;;;;;4974216;28;20070;-58
2023/07/24 02:43:06;;;;;;;46.17;39.08;;;21.70;99.90;;;;;;4974179;28;20129;-58
2023/07/24 02:45:34;;;;;;;50.17;40.50;;;22.70;99.90;;;;;;4973560;28;20536;-58
2023/07/24 02:48:01;;;;;;;52.03;40.88;;;21.60;99.90;;;;;;4974112;28;20400;-59
2023/07/24 02:50:27;;;;;;;47.00;40.80;;;22.10;99.90;;;;;;4973249;28;20035;-58
2023/07/24 02:52:53;;;;;;;50.67;41.03;;;22.80;99.90;;;;;;4973851;28;20633;-58
2023/07/24 02:55:18;;;;;;;49.10;40.53;;;22.10;99.90;;;;;;4972016;28;20046;-59
2023/07/24 02:57:44;;;;;;;45.53;39.92;;;22.80;99.90;;;;;;4972168;28;20501;-58
2023/07/24 03:00:10;;;;;;;49.78;39.10;;;21.60;99.90;;;;;;4974038;28;20060;-58
2023/07/24 03:02:35;;;;;;;45.50;39.55;;;22.50;99.90;;;;;;4972411;28;20122;-58
2023/07/24 03:05:02;;;;;;;48.53;40.97;;;22.70;99.90;;;;;;4972854;28;20051;-58
2023/07/24 03:07:27;;;;;;;58.72;42.28;;;21.60;99.90;;;;;;4973320;28;20047;-58
2023/07/24 03:09:53;;;;;;;43.50;39.00;;;22.40;99.90;;;;;;4973647;28;20409;-59
2023/07/24 03:12:18;;;;;;;44.17;39.47;;;23.10;99.90;;;;;;4973134;28;20069;-58
2023/07/24 03:14:44;;;;;;;50.42;39.70;;;22.50;99.90;;;;;;4973471;28;20045;-58
2023/07/24 03:17:09;;;;;;;45.22;39.38;;;22.70;99.90;;;;;;4972936;28;20433;-58
2023/07/24 03:19:35;;;;;;;46.33;39.30;;;22.40;99.90;;;;;;4972154;28;20416;-58
2023/07/24 03:22:00;;;;;;;43.72;39.08;;;22.00;99.90;;;;;;4972920;28;20404;-59
2023/07/24 03:24:26;;;;;;;43.42;38.92;;;22.70;99.90;;;;;;4972701;28;20400;-58
2023/07/24 03:26:51;;;;;;;45.13;39.65;;;22.30;99.90;;;;;;4973009;28;20499;-58
2023/07/24 03:29:17;;;;;;;50.60;38.58;;;22.20;99.90;;;;;;4973021;28;20110;-58
2023/07/24 03:31:42;;;;;;;42.95;38.47;;;21.50;99.90;;;;;;4972976;28;20039;-58
2023/07/24 03:34:08;;;;;;;46.88;39.55;;;21.80;99.90;;;;;;4973346;28;20605;-61
2023/07/24 03:36:35;;;;;;;49.35;39.90;;;22.60;99.90;;;;;;4971416;28;20046;-58
2023/07/24 03:39:01;;;;;;;47.22;38.97;;;21.90;99.90;;;;;;4972972;28;20520;-58
2023/07/24 03:41:26;;;;;;;46.33;39.60;;;22.70;99.90;;;;;;4973132;28;20110;-58
2023/07/24 03:43:52;;;;;;;44.30;39.88;;;22.80;99.90;;;;;;4972808;28;20082;-58
2023/07/24 03:46:17;;;;;;;48.72;39.22;;;22.70;99.90;;;;;;4972580;28;20418;-58
2023/07/24 03:48:43;;;;;;;45.70;39.70;;;22.80;99.90;;;;;;4972948;28;20374;-58
2023/07/24 03:51:08;;;;;;;51.28;41.95;;;22.30;99.90;;;;;;4972838;28;20560;-59
2023/07/24 03:53:36;;;;;;;44.25;39.40;;;22.50;99.90;;;;;;4971176;28;20065;-59
2023/07/24 03:56:05;;;;;;;44.60;39.30;;;21.80;99.90;;;;;;4972451;28;20492;-58
2023/07/24 03:58:30;;;;;;;46.33;38.42;;;22.20;99.90;;;;;;4972412;28;20529;-58
2023/07/24 04:00:56;;;;;;;43.47;39.00;;;22.20;99.90;;;;;;4972681;28;20053;-59
2023/07/24 04:03:21;;;;;;;44.72;39.85;;;22.70;99.90;;;;;;4971588;28;20055;-58
2023/07/24 04:05:47;;;;;;;55.60;42.10;;;22.80;99.90;;;;;;4972050;28;20121;-59
2023/07/24 04:08:13;;;;;;;49.70;40.42;;;21.50;99.90;;;;;;4972013;28;20045;-58
2023/07/24 04:10:38;;;;;;;47.55;39.88;;;22.20;99.90;;;;;;4972346;28;20084;-58
2023/07/24 04:13:04;;;;;;;54.55;40.95;;;22.80;99.90;;;;;;4972056;28;20106;-59
2023/07/24 04:15:29;;;;;;;48.65;42.78;;;22.70;99.90;;;;;;4971809;28;20407;-59
2023/07/24 04:17:55;;;;;;;45.05;39.78;;;21.70;99.90;;;;;;4972617;28;20038;-58
2023/07/24 04:20:20;;;;;;;55.13;40.33;;;21.60;99.90;;;;;;4972335;28;20039;-58
2023/07/24 04:22:46;;;;;;;61.72;40.45;;;22.00;99.90;;;;;;4972059;28;20031;-59
2023/07/24 04:25:11;;;;;;;53.67;40.78;;;22.80;99.90;;;;;;4972125;28;20085;-58
2023/07/24 04:27:37;;;;;;;54.45;41.92;;;22.10;99.90;;;;;;4971829;28;20093;-59
2023/07/24 04:30:03;;;;;;;54.95;42.28;;;21.60;99.90;;;;;;4970331;28;20481;-59
2023/07/24 04:32:28;;;;;;;53.60;40.72;;;22.60;99.90;;;;;;4972181;28;20038;-60
2023/07/24 04:34:54;;;;;;;50.55;42.40;;;21.70;99.90;;;;;;4971400;28;20515;-59
2023/07/24 04:37:19;;;;;;;52.38;40.90;;;22.60;99.90;;;;;;4970421;28;20039;-60
2023/07/24 04:39:45;;;;;;;52.15;39.88;;;21.70;99.90;;;;;;4972122;28;20432;-60
2023/07/24 04:42:10;;;;;;;54.58;41.70;;;22.50;99.90;;;;;;4971667;28;20043;-59
2023/07/24 04:44:36;;;;;;;55.70;40.35;;;22.00;99.90;;;;;;4971436;28;20041;-59
2023/07/24 04:47:02;;;;;;;55.22;40.30;;;22.40;99.90;;;;;;4971766;28;20514;-59
2023/07/24 04:49:32;;;;;;;54.03;41.03;;;21.80;99.90;;;;;;4973506;28;20090;-60
2023/07/24 04:51:58;;;;;;;54.75;39.75;;;22.00;99.90;;;;;;4971998;28;20500;-60
2023/07/24 04:54:24;;;;;;;48.15;40.97;;;22.00;99.90;;;;;;4972107;28;20074;-59
2023/07/24 04:56:49;;;;;;;48.67;40.97;;;22.20;99.90;;;;;;4972009;28;20042;-59
2023/07/24 04:59:15;;;;;;;53.08;41.22;;;22.50;99.90;;;;;;4970964;28;20145;-59
2023/07/24 05:01:40;;;;;;;57.40;41.15;;;22.80;99.90;;;;;;4971927;28;20050;-59
2023/07/24 05:04:06;;;;;;;50.10;39.63;;;22.90;99.90;;;;;;4971528;28;20523;-59
2023/07/24 05:06:31;;;;;;;54.10;40.47;;;21.90;99.90;;;;;;4971420;28;20050;-60
2023/07/24 05:08:57;;;;;;;48.65;39.88;;;21.70;99.90;;;;;;4971515;28;20049;-59
2023/07/24 05:11:23;;;;;;;54.17;41.03;;;22.90;99.90;;;;;;4971701;28;20058;-59
2023/07/24 05:13:48;;;;;;;54.13;41.38;;;22.20;99.90;;;;;;4966988;28;20094;-60
2023/07/24 05:16:14;;;;;;;60.17;42.03;;;22.30;99.90;;;;;;4969619;28;20050;-59
2023/07/24 05:18:39;;;;;;;46.78;39.50;;;21.80;99.90;;;;;;4967745;28;20047;-59
2023/07/24 05:21:05;;;;;;;57.33;38.80;;;22.60;99.90;;;;;;4971598;28;20121;-60
2023/07/24 05:23:30;;;;;;;51.88;40.95;;;21.60;99.90;;;;;;4971210;28;20038;-59
2023/07/24 05:26:00;;;;;;;52.72;40.22;;;22.90;99.90;;;;;;4971428;28;20046;-60
2023/07/24 05:28:27;;;;;;;59.97;41.85;;;21.80;99.90;;;;;;4971177;28;20315;-60
2023/07/24 05:30:53;;;;;;;61.63;43.47;;;22.70;99.90;;;;;;4957417;28;20042;-59
2023/07/24 05:33:18;;;;;;;49.67;41.17;;;23.00;99.90;;;;;;4971290;28;20403;-59
2023/07/24 05:35:44;;;;;;;47.10;40.33;;;23.10;99.90;;;;;;4971568;28;20066;-59
2023/07/24 05:38:10;;;;;;;61.60;41.97;;;23.20;99.90;;;;;;4971559;28;20047;-60
2023/07/24 05:40:35;;;;;;;51.50;40.22;;;22.00;99.90;;;;;;4970186;28;20061;-59
2023/07/24 05:43:01;;;;;;;50.42;40.47;;;21.90;99.90;;;;;;4971287;28;20042;-60
2023/07/24 05:45:27;;;;;;;54.88;39.75;;;22.40;99.90;;;;;;4973189;28;20062;-60
2023/07/24 05:47:53;;;;;;;51.95;40.65;;;23.20;99.90;;;;;;4974521;28;20047;-59
2023/07/24 05:50:19;;;;;;;51.10;40.42;;;22.30;99.90;;;;;;4974486;28;20037;-60
2023/07/24 05:52:44;;;;;;;52.47;40.33;;;22.30;99.90;;;;;;4974344;28;20086;-59
2023/07/24 05:55:10;;;;;;;56.75;40.50;;;23.80;99.90;;;;;;4974932;28;20054;-60
2023/07/24 05:57:36;;;;;;;50.72;40.47;;;22.20;99.90;;;;;;4974867;28;20050;-59
2023/07/24 06:00:03;;;;;;;54.28;40.78;;;22.70;99.90;;;;;;4975011;28;20038;-60
2023/07/24 06:02:29;;;;;;;49.80;39.63;;;23.50;99.90;;;;;;4973197;28;20058;-59
2023/07/24 06:04:54;;;;;;;52.03;40.03;;;22.30;99.90;;;;;;4972052;28;20516;-60
2023/07/24 06:07:20;;;;;;;56.05;40.75;;;22.60;99.90;;;;;;4973577;28;20505;-60
2023/07/24 06:09:45;;;;;;;55.92;42.03;;;22.40;99.90;;;;;;4973729;28;20045;-59
2023/07/24 06:12:11;;;;;;;55.67;41.10;;;23.50;99.90;;;;;;4973005;28;20117;-59
2023/07/24 06:14:36;;;;;;;45.72;40.78;;;23.50;99.90;;;;;;4968449;28;20114;-59
2023/07/24 06:17:02;;;;;;;50.28;41.30;;;23.50;99.90;;;;;;4968577;28;20776;-59
2023/07/24 06:19:28;;;;;;;53.00;41.40;;;22.80;99.90;;;;;;4972428;28;20035;-59
2023/07/24 06:21:53;;;;;;;55.15;40.90;;;23.00;99.90;;;;;;4967446;28;20046;-59
2023/07/24 06:24:19;;;;;;;49.55;41.78;;;22.60;99.90;;;;;;4967072;28;20031;-60
2023/07/24 06:26:45;;;;;;;43.47;38.92;;;23.70;99.90;;;;;;4970992;28;20132;-60
2023/07/24 06:29:10;;;;;;;49.33;38.65;;;23.30;99.90;;;;;;4969863;28;20045;-59
2023/07/24 06:31:37;;;;;;;51.40;38.80;;;23.10;99.90;;;;;;4966170;28;20039;-59
2023/07/24 06:34:02;;;;;;;50.40;39.95;;;23.10;99.90;;;;;;4972055;28;20042;-59
2023/07/24 06:36:28;;;;;;;52.10;38.15;;;23.60;99.90;;;;;;4964230;28;20038;-60
2023/07/24 06:38:53;;;;;;;50.67;39.70;;;23.70;99.90;;;;;;4972116;28;20221;-59
2023/07/24 06:41:21;;;;;;;50.55;39.42;;;23.00;99.90;;;;;;4969787;28;20128;-59
2023/07/24 06:43:46;;;;;;;45.35;39.22;;;22.90;99.90;;;;;;4968440;28;20473;-59
2023/07/24 06:46:12;;;;;;;46.10;41.10;;;23.70;99.90;;;;;;4972375;28;20054;-60
2023/07/24 06:48:37;;;;;;;48.17;40.95;;;23.10;99.90;;;;;;4972347;28;20087;-60
2023/07/24 06:51:03;;;;;;;46.83;40.40;;;23.30;99.90;;;;;;4964686;28;20042;-60
2023/07/24 06:53:28;;;;;;;53.80;42.00;;;24.20;99.90;;;;;;4971525;28;20038;-59
2023/07/24 06:55:54;;;;;;;50.15;40.33;;;24.20;99.90;;;;;;4968616;28;20043;-60
2023/07/24 06:58:20;;;;;;;55.33;39.33;;;23.70;99.90;;;;;;4972256;28;20041;-60
2023/07/24 07:00:45;;;;;;;47.47;38.55;;;24.20;99.90;;;;;;4970784;28;20126;-59
2023/07/24 07:03:11;;;;;;;47.17;40.00;;;23.70;99.90;;;;;;4971753;28;20046;-60
2023/07/24 07:05:36;;;;;;;47.08;40.25;;;24.00;99.90;;;;;;4970637;28;20046;-60
2023/07/24 07:08:02;;;;;;;53.58;41.15;;;24.00;99.90;;;;;;4970299;28;20074;-59
2023/07/24 07:10:28;;;;;;;51.42;42.92;;;23.10;99.90;;;;;;4971117;28;20042;-59
2023/07/24 07:12:53;;;;;;;46.33;41.33;;;23.80;99.90;;;;;;4970439;28;20452;-60
2023/07/24 07:15:19;;;;;;;44.85;39.95;;;23.90;99.90;;;;;;4972089;28;20035;-60
2023/07/24 07:17:44;;;;;;;47.78;38.75;;;24.50;99.90;;;;;;4971568;28;20113;-60
2023/07/24 07:20:10;;;;;;;45.33;38.72;;;23.80;99.90;;;;;;4969554;28;20046;-59
2023/07/24 07:22:35;;;;;;;49.38;40.60;;;24.30;99.90;;;;;;4970052;28;20050;-60
2023/07/24 07:25:01;;;;;;;46.85;40.55;;;24.20;99.90;;;;;;4963376;28;20043;-60
2023/07/24 07:27:26;;;;;;;52.38;40.35;;;24.00;99.90;;;;;;4969681;28;20053;-60
2023/07/24 07:29:52;;;;;;;44.67;39.22;;;23.80;99.90;;;;;;4968331;28;20499;-59
2023/07/24 07:32:18;;;;;;;43.72;38.92;;;24.00;99.90;;;;;;4967917;28;20062;-59
2023/07/24 07:34:43;;;;;;;42.42;37.42;;;24.00;99.90;;;;;;4971140;28;20064;-59
2023/07/24 07:37:09;;;;;;;42.05;37.50;;;23.90;99.90;;;;;;4970969;28;20042;-60
2023/07/24 07:39:34;;;;;;;41.55;36.97;;;24.20;99.90;;;;;;4965279;28;20051;-60
2023/07/24 07:42:00;;;;;;;44.08;38.22;;;24.40;99.90;;;;;;4965972;28;20038;-59
2023/07/24 07:44:25;;;;;;;45.40;40.45;;;24.10;99.90;;;;;;4971657;28;20035;-60
2023/07/24 07:46:51;;;;;;;42.30;38.10;;;23.80;99.90;;;;;;4965787;28;20046;-60
2023/07/24 07:49:16;;;;;;;44.42;39.92;;;23.70;99.90;;;;;;4967767;28;20828;-60
2023/07/24 07:51:42;;;;;;;44.58;39.17;;;24.50;99.90;;;;;;4968969;28;20057;-59
2023/07/24 07:54:08;;;;;;;39.25;35.35;;;24.40;99.90;;;;;;4968823;28;20043;-60
2023/07/24 07:56:33;;;;;;;37.67;34.17;;;25.00;99.90;;;;;;4965775;28;20046;-60
2023/07/24 07:58:59;;;;;;;38.28;34.67;;;24.30;99.90;;;;;;4970155;28;20052;-59
2023/07/24 08:01:24;;;;;;;39.13;35.40;;;24.90;99.90;;;;;;4966083;28;20048;-60
2023/07/24 08:03:50;;;;;;;35.92;32.67;;;24.80;99.90;;;;;;4965178;28;20524;-59
2023/07/24 08:06:15;;;;;;;32.20;29.48;;;24.80;99.90;;;;;;4962367;28;20409;-60
2023/07/24 08:08:41;;;;;;;31.33;28.63;;;25.10;99.90;;;;;;4971248;28;20146;-60
2023/07/24 08:11:07;;;;;;;32.28;29.67;;;25.10;99.90;;;;;;4968409;28;20045;-60
2023/07/24 08:13:33;;;;;;;32.70;30.02;;;24.90;1.00;;;;;;4971052;28;20034;-60
2023/07/24 08:16:01;;;;;;;32.85;29.90;;;25.00;99.90;;;;;;4967508;28;20181;-60
2023/07/24 08:18:26;;;;;;;29.33;26.85;;;25.40;7.10;;;;;;4971942;28;20417;-60
2023/07/24 08:20:52;;;;;;;28.50;26.10;;;25.50;1.00;;;;;;4966941;28;20047;-59
2023/07/24 08:23:17;;;;;;;28.52;26.02;;;25.40;99.90;;;;;;4968517;28;20051;-60
2023/07/24 08:25:53;;;;;;;31.02;28.20;;;25.20;1.00;;;;;;4969717;28;20038;-59
2023/07/24 08:28:19;;;;;;;31.98;29.48;;;25.00;99.90;;;;;;4958263;28;20118;-60
2023/07/24 08:30:46;;;;;;;27.92;25.83;;;24.90;4.80;;;;;;4969173;28;20254;-59
2023/07/24 08:33:12;;;;;;;27.05;25.05;;;25.10;1.00;;;;;;4970254;28;20045;-60
2023/07/24 08:35:38;;;;;;;28.17;25.63;;;25.30;99.90;;;;;;4970941;28;20129;-60
2023/07/24 08:38:04;;;;;;;28.33;26.05;;;25.30;1.00;;;;;;4970944;28;20034;-60
2023/07/24 08:40:29;;;;;;;29.17;26.77;;;25.50;1.00;;;;;;4968316;28;20037;-60
2023/07/24 08:42:56;;;;;;;28.30;26.00;;;25.70;99.90;;;;;;4968636;28;20452;-59
2023/07/24 08:45:24;;;;;;;29.80;27.30;;;25.80;97.50;;;;;;4969064;28;20519;-60
2023/07/24 08:47:50;;;;;;;28.70;26.35;;;25.90;1.00;;;;;;4965930;28;20047;-60
2023/07/24 08:50:17;;;;;;;26.30;24.33;;;26.00;1.00;;;;;;4970680;28;20035;-60
2023/07/24 08:52:44;;;;;;;27.23;25.00;;;26.10;99.90;;;;;;4967709;28;20066;-59
2023/07/24 08:55:10;;;;;;;31.52;28.92;;;26.30;99.90;;;;;;4964669;28;20038;-60
2023/07/24 08:57:36;;;;;;;28.25;26.15;;;26.20;99.90;;;;;;4963617;28;20043;-60
2023/07/24 09:00:04;;;;;;;30.15;27.77;;;25.90;1.00;;;;;;4966228;28;20101;-60
2023/07/24 09:02:34;;;;;;;29.60;27.23;;;25.80;99.90;;;;;;4968976;28;20535;-67
2023/07/24 09:05:00;;;;;;;30.20;27.75;;;26.00;99.90;;;;;;4966703;28;20055;-62
2023/07/24 09:07:26;;;;;;;26.70;24.60;;;26.10;1.00;;;;;;4967675;28;20054;-61
2023/07/24 09:09:52;;;;;;;27.55;25.55;;;26.00;99.90;;;;;;4963341;28;20552;-62
2023/07/24 09:12:18;;;;;;;28.05;25.70;;;26.00;99.90;;;;;;4963825;28;20042;-62
2023/07/24 09:14:45;;;;;;;25.10;23.10;;;26.20;99.90;;;;;;4970110;28;20512;-62
2023/07/24 09:17:11;;;;;;;30.70;27.50;;;26.20;99.90;;;;;;4965239;28;20050;-62
2023/07/24 09:19:37;;;;;;;29.98;27.67;;;25.80;99.90;;;;;;4967595;28;20046;-62
2023/07/24 09:22:10;;;;;;;29.55;27.25;;;25.60;99.90;;;;;;4968476;28;20409;-61
2023/07/24 09:24:36;;;;;;;29.13;26.73;;;25.40;99.90;;;;;;4968970;28;20051;-61
2023/07/24 09:27:05;;;;;;;29.70;27.30;;;25.50;99.90;;;;;;4969147;28;20061;-61
2023/07/24 09:29:32;;;;;;;27.83;25.63;;;25.60;99.90;;;;;;4968913;28;20082;-62
2023/07/24 09:31:59;;;;;;;27.08;24.88;;;25.50;99.90;;;;;;4964367;28;20043;-62
2023/07/24 09:34:28;;;;;;;28.17;25.90;;;25.60;99.90;;;;;;4966037;28;20089;-61
2023/07/24 09:36:53;;;;;;;26.52;24.42;;;25.60;99.90;;;;;;4966958;28;20047;-62
2023/07/24 09:39:26;;;;;;;30.33;27.80;;;25.40;99.90;;;;;;4969647;28;21005;-61
2023/07/24 09:41:52;;;;;;;29.83;27.42;;;25.40;99.90;;;;;;4966099;28;20107;-61
2023/07/24 09:44:18;;;;;;;30.30;27.80;;;25.20;99.90;;;;;;4960682;28;20053;-61
2023/07/24 09:46:45;;;;;;;30.90;28.38;;;25.30;99.90;;;;;;4963221;28;20280;-61
2023/07/24 09:49:11;;;;;;;31.00;28.23;;;25.50;99.90;;;;;;4967221;28;20042;-61
2023/07/24 09:51:37;;;;;;;31.00;28.50;;;25.60;1.00;;;;;;4967150;28;20050;-61
2023/07/24 09:54:19;;;;;;;27.48;25.20;;;25.80;1.00;;;;;;4964172;28;20511;-62
2023/07/24 09:56:45;;;;;;;28.27;25.83;;;26.00;99.90;;;;;;4979782;28;20057;-61
2023/07/24 09:59:12;;;;;;;27.58;25.45;;;25.90;99.90;;;;;;4969457;28;20189;-61
2023/07/24 10:01:38;;;;;;;26.42;24.42;;;25.70;99.90;;;;;;4965482;28;20801;-61
2023/07/24 10:04:04;;;;;;;28.85;26.40;;;25.70;99.90;;;;;;4964589;28;20065;-61
2023/07/24 10:06:31;;;;;;;26.38;24.35;;;25.40;76.50;;;;;;4973545;28;20070;-61
2023/07/24 10:08:58;;;;;;;27.30;25.13;;;25.20;1.00;;;;;;4965406;28;20043;-61
2023/07/24 10:11:26;;;;;;;28.83;26.58;;;25.40;8.10;;;;;;4968661;28;20042;-60
2023/07/24 10:13:53;;;;;;;28.20;25.90;;;25.30;74.60;;;;;;4967023;28;20070;-60
2023/07/24 10:16:19;;;;;;;29.60;27.10;;;25.20;99.90;;;;;;4966353;28;20544;-60
2023/07/24 10:18:46;;;;;;;29.63;27.10;;;25.20;99.90;;;;;;4967450;28;20107;-60
2023/07/24 10:21:12;;;;;;;26.83;24.42;;;25.30;99.90;;;;;;4969236;28;20050;-60
2023/07/24 10:23:46;;;;;;;24.13;22.20;;;25.20;99.90;;;;;;4979336;28;20429;-60
2023/07/24 10:26:12;;;;;;;23.75;21.85;;;25.40;99.90;;;;;;4963667;28;20201;-60
2023/07/24 10:28:40;;;;;;;25.23;23.17;;;25.20;32.60;;;;;;4963205;28;20054;-61
2023/07/24 10:31:23;;;;;;;25.30;23.30;;;25.10;1.00;;;;;;4966072;28;20035;-61
2023/07/24 10:33:49;;;;;;;23.88;21.95;;;25.00;1.00;;;;;;4969712;28;20043;-60
2023/07/24 10:36:22;;;;;;;22.33;20.60;;;25.00;1.00;;;;;;4970978;28;20047;-61
2023/07/24 10:38:53;;;;;;;25.50;23.40;;;25.00;1.00;;;;;;4965460;28;20042;-60
2023/07/24 10:41:18;;;;;;;24.42;22.42;;;25.20;21.70;;;;;;4970566;28;20139;-60
2023/07/24 10:43:47;;;;;;;23.80;21.77;;;25.30;99.90;;;;;;4972258;28;20122;-61
2023/07/24 10:46:14;;;;;;;20.58;18.95;;;25.40;71.70;;;;;;4968630;28;21138;-61
2023/07/24 10:48:44;;;;;;;21.98;20.27;;;25.50;1.00;;;;;;4966909;28;20046;-61
2023/07/24 10:51:11;;;;;;;21.67;19.98;;;25.30;1.00;;;;;;4967302;28;20501;-61
2023/07/24 10:53:37;;;;;;;25.10;22.88;;;25.30;1.00;;;;;;4965695;28;20039;-61
2023/07/24 10:56:05;;;;;;;27.50;25.20;;;25.20;1.00;;;;;;4971301;28;20038;-60
2023/07/24 10:58:31;;;;;;;23.60;21.77;;;25.20;1.00;;;;;;4966827;28;20417;-60
2023/07/24 11:00:57;;;;;;;24.15;22.25;;;25.30;1.00;;;;;;4970386;28;20046;-61
2023/07/24 11:03:24;;;;;;;20.77;19.20;;;25.40;1.00;;;;;;4968427;28;20062;-60
2023/07/24 11:05:49;;;;;;;20.65;19.15;;;25.30;1.00;;;;;;4968705;28;20424;-61
2023/07/24 11:08:17;;;;;;;20.05;18.48;;;25.30;1.00;;;;;;4969520;28;20039;-61
2023/07/24 11:10:54;;;;;;;20.58;19.08;;;25.10;99.90;;;;;;4966785;28;20045;-61
2023/07/24 11:13:22;;;;;;;22.40;20.73;;;25.20;99.90;;;;;;4966239;28;20981;-61
2023/07/24 11:15:49;;;;;;;22.55;20.90;;;25.10;1.00;;;;;;4971949;28;20074;-60
2023/07/24 11:18:16;;;;;;;23.98;22.17;;;25.10;1.00;;;;;;4968462;28;20301;-60
2023/07/24 11:20:46;;;;;;;25.83;23.92;;;25.20;1.00;;;;;;4969458;28;20043;-60
2023/07/24 11:23:12;;;;;;;24.58;22.67;;;25.00;1.00;;;;;;4965445;28;20043;-60
2023/07/24 11:25:38;;;;;;;25.25;23.27;;;24.90;1.00;;;;;;4957093;28;20050;-60
2023/07/24 11:28:09;;;;;;;26.35;24.35;;;24.70;1.00;;;;;;4971879;28;20616;-61
2023/07/24 11:30:35;;;;;;;24.77;22.88;;;24.40;1.00;;;;;;4971350;28;20426;-61
2023/07/24 11:33:03;;;;;;;25.60;23.70;;;24.50;6.80;;;;;;4968196;28;20038;-61
2023/07/24 11:35:29;;;;;;;25.75;23.60;;;24.20;26.40;;;;;;4971055;28;20041;-61
2023/07/24 11:37:55;;;;;;;24.73;22.80;;;24.40;99.90;;;;;;4966314;28;20042;-61
2023/07/24 11:40:20;;;;;;;24.50;22.70;;;24.30;99.90;;;;;;4971166;28;20046;-61
2023/07/24 11:42:48;;;;;;;24.00;22.13;;;24.30;99.90;;;;;;4972317;28;20493;-61
2023/07/24 11:45:14;;;;;;;24.95;22.67;;;24.10;99.90;;;;;;4972622;28;20177;-61
2023/07/24 11:47:53;;;;;;;27.90;25.70;;;24.10;99.90;;;;;;4968218;28;20082;-61
2023/07/24 11:50:20;;;;;;;28.95;26.13;;;23.90;1.00;;;;;;4970838;28;20039;-61
2023/07/24 11:52:53;;;;;;;29.83;27.33;;;23.80;35.40;;;;;;4966300;28;20129;-61
2023/07/24 11:55:30;;;;;;;32.50;29.60;;;23.60;99.90;;;;;;4958706;28;20409;-61
2023/07/24 11:58:00;;;;;;;31.33;28.55;;;23.50;1.00;;;;;;4968354;28;20420;-61
2023/07/24 12:00:27;;;;;;;34.05;30.73;;;23.30;99.90;;;;;;4965623;28;20039;-62
2023/07/24 12:02:58;;;;;;;33.45;30.52;;;23.40;99.90;;;;;;4968005;28;20054;-61
2023/07/24 12:05:24;;;;;;;32.28;29.33;;;23.50;1.00;;;;;;4970200;28;20047;-61
2023/07/24 12:07:49;;;;;;;32.90;29.77;;;23.50;1.00;;;;;;4964021;28;20682;-61
2023/07/24 12:10:29;;;;;;;29.05;26.52;;;23.40;1.00;;;;;;4962778;28;20031;-61
2023/07/24 12:12:58;;;;;;;32.38;29.30;;;23.30;1.00;;;;;;4968194;28;20046;-61
2023/07/24 12:15:23;;;;;;;28.08;25.63;;;23.40;1.00;;;;;;4971719;28;20093;-61
2023/07/24 12:17:49;;;;;;;30.92;28.08;;;23.20;1.00;;;;;;4968198;28;20394;-61
2023/07/24 12:20:15;;;;;;;32.50;29.70;;;23.30;99.90;;;;;;4970768;28;20043;-61
2023/07/24 12:22:40;;;;;;;31.63;29.02;;;23.10;99.90;;;;;;4968129;28;20429;-61
2023/07/24 12:25:06;;;;;;;31.45;28.77;;;23.30;99.90;;;;;;4970762;28;20120;-61